createdAt,value
2019-03-26T00:02:11.713Z,5.50
2019-03-26T00:07:11.791Z,5.50
2019-03-26T00:12:11.880Z,5.60
2019-03-26T00:17:12.063Z,5.70
2019-03-26T00:22:12.145Z,5.60
2019-03-26T00:27:12.242Z,5.50
2019-03-26T00:32:12.436Z,5.40
2019-03-26T00:37:12.521Z,5.40
2019-03-26T00:42:12.615Z,5.30
2019-03-26T00:47:12.715Z,5.20
2019-03-26T00:52:12.827Z,5.30
2019-03-26T00:57:12.911Z,5.10
2019-03-26T01:02:13.003Z,5.00
2019-03-26T01:07:13.157Z,5.00
2019-03-26T01:12:14.216Z,5.00
2019-03-26T01:17:14.295Z,4.90
2019-03-26T01:22:14.401Z,4.90
2019-03-26T01:27:14.550Z,4.90
2019-03-26T01:32:14.619Z,4.90
2019-03-26T01:37:14.711Z,4.90
2019-03-26T01:42:14.806Z,4.70
2019-03-26T01:47:14.898Z,4.70
2019-03-26T01:52:15.083Z,4.70
2019-03-26T01:57:15.204Z,4.60
2019-03-26T02:02:15.349Z,4.70
2019-03-26T02:07:15.443Z,4.60
2019-03-26T02:12:15.539Z,4.50
2019-03-26T02:17:15.838Z,4.40
2019-03-26T02:22:15.951Z,4.30
2019-03-26T02:27:16.025Z,4.20
2019-03-26T02:32:16.200Z,4.10
2019-03-26T02:37:16.281Z,4.10
2019-03-26T02:42:16.387Z,4.20
2019-03-26T02:47:16.501Z,4.20
2019-03-26T02:52:16.644Z,4.20
2019-03-26T02:57:16.723Z,4.10
2019-03-26T03:02:16.823Z,3.90
2019-03-26T03:07:16.900Z,3.80
2019-03-26T03:12:17.003Z,3.80
2019-03-26T03:17:17.090Z,3.80
2019-03-26T03:22:17.176Z,3.90
2019-03-26T03:27:17.339Z,3.90
2019-03-26T03:32:17.437Z,4.00
2019-03-26T03:37:17.505Z,4.00
2019-03-26T03:42:17.686Z,4.00
2019-03-26T03:47:19.409Z,4.00
2019-03-26T03:52:20.466Z,4.10
2019-03-26T03:57:23.495Z,4.00
2019-03-26T04:02:23.589Z,4.00
2019-03-26T04:07:23.736Z,4.00
2019-03-26T04:12:23.827Z,4.00
2019-03-26T04:17:23.919Z,4.10
2019-03-26T04:22:24.003Z,4.10
2019-03-26T04:27:24.099Z,4.20
2019-03-26T04:32:24.205Z,4.20
2019-03-26T04:37:24.264Z,4.30
2019-03-26T04:42:24.352Z,4.30
2019-03-26T04:47:24.434Z,4.30
2019-03-26T04:52:24.519Z,4.30
2019-03-26T04:57:24.590Z,4.20
2019-03-26T05:02:24.694Z,4.20
2019-03-26T05:07:24.787Z,4.20
2019-03-26T05:12:24.863Z,4.20
2019-03-26T05:17:24.951Z,4.10
2019-03-26T05:22:25.037Z,4.10
2019-03-26T05:27:25.135Z,4.00
2019-03-26T05:32:25.257Z,4.00
2019-03-26T05:37:25.346Z,4.00
2019-03-26T05:42:25.459Z,4.00
2019-03-26T05:47:25.539Z,4.10
2019-03-26T05:52:25.622Z,4.00
2019-03-26T05:57:25.703Z,4.10
2019-03-26T06:02:25.810Z,4.00
2019-03-26T06:07:25.891Z,4.00
2019-03-26T06:12:26.007Z,4.00
2019-03-26T06:17:26.118Z,4.20
2019-03-26T06:22:26.228Z,4.40
2019-03-26T06:27:26.292Z,4.40
2019-03-26T06:32:26.389Z,4.50
2019-03-26T06:37:27.447Z,4.60
2019-03-26T06:42:28.545Z,4.80
2019-03-26T06:47:28.698Z,5.10
2019-03-26T06:52:28.820Z,5.10
2019-03-26T06:57:35.457Z,5.00
2019-03-26T07:02:30.702Z,5.10
2019-03-26T07:07:31.979Z,5.10
2019-03-26T07:12:32.359Z,5.10
2019-03-26T07:17:32.464Z,5.40
2019-03-26T07:22:32.526Z,5.40
2019-03-26T07:27:32.627Z,5.30
2019-03-26T07:32:32.706Z,5.40
2019-03-26T07:37:44.657Z,5.50
2019-03-26T07:42:34.562Z,5.80
2019-03-26T07:47:34.654Z,6.40
2019-03-26T07:52:34.872Z,6.70
2019-03-26T07:57:35.062Z,6.60
2019-03-26T08:02:36.944Z,6.50
2019-03-26T08:07:37.270Z,6.40
2019-03-26T08:12:37.373Z,6.80
2019-03-26T08:17:38.903Z,6.90
2019-03-26T08:22:39.154Z,7.20
2019-03-26T08:27:39.373Z,7.30
2019-03-26T08:32:39.463Z,7.50
2019-03-26T08:37:39.559Z,7.70
2019-03-26T08:42:39.710Z,7.90
2019-03-26T08:47:39.824Z,7.90
2019-03-26T08:52:40.063Z,7.50
2019-03-26T08:57:40.262Z,7.20
2019-03-26T09:02:40.399Z,7.20
2019-03-26T09:07:40.500Z,7.40
2019-03-26T09:12:40.612Z,7.70
2019-03-26T09:17:44.122Z,7.90
2019-03-26T09:22:43.505Z,7.60
2019-03-26T09:27:43.597Z,7.40
2019-03-26T09:32:43.757Z,7.30
2019-03-26T09:37:44.012Z,7.40
2019-03-26T09:42:44.418Z,7.40
2019-03-26T09:47:44.692Z,7.70
2019-03-26T09:52:45.178Z,7.90
2019-03-26T09:57:45.270Z,7.80
2019-03-26T10:02:45.365Z,7.80
2019-03-26T10:07:45.474Z,7.60
2019-03-26T10:12:45.669Z,7.90
2019-03-26T10:17:45.770Z,7.80
2019-03-26T10:22:45.858Z,8.50
2019-03-26T10:27:46.244Z,8.70
2019-03-26T10:32:46.467Z,8.30
2019-03-26T10:37:46.632Z,7.90
2019-03-26T10:42:47.168Z,7.70
2019-03-26T10:47:47.259Z,7.70
2019-03-26T10:52:47.345Z,7.80
2019-03-26T10:57:47.467Z,7.80
2019-03-26T11:02:47.621Z,8.10
2019-03-26T11:07:48.677Z,8.40
2019-03-26T11:12:48.783Z,8.40
2019-03-26T11:17:48.896Z,8.60
2019-03-26T11:22:49.075Z,8.60
2019-03-26T11:27:49.252Z,8.60
2019-03-26T11:32:49.434Z,8.50
2019-03-26T11:37:49.691Z,8.60
2019-03-26T11:42:49.806Z,8.50
2019-03-26T11:47:51.038Z,8.50
2019-03-26T11:52:51.635Z,8.30
2019-03-26T11:57:51.735Z,8.20
2019-03-26T12:02:51.813Z,8.50
2019-03-26T12:07:51.911Z,8.70
2019-03-26T12:12:52.014Z,8.40
2019-03-26T12:17:52.105Z,8.50
2019-03-26T12:22:52.194Z,8.50
2019-03-26T12:27:52.275Z,8.30
2019-03-26T12:32:52.388Z,8.30
2019-03-26T12:37:52.515Z,8.10
2019-03-26T12:42:53.706Z,8.00
2019-03-26T12:47:53.818Z,7.90
2019-03-26T12:52:53.898Z,7.90
2019-03-26T12:57:54.010Z,8.00
2019-03-26T13:02:54.096Z,8.00
2019-03-26T13:07:54.167Z,7.80
2019-03-26T13:12:54.270Z,7.80
2019-03-26T13:17:54.341Z,7.90
2019-03-26T13:22:54.439Z,7.90
2019-03-26T13:27:54.515Z,7.80
2019-03-26T13:32:54.616Z,7.50
2019-03-26T13:37:54.705Z,7.60
2019-03-26T13:42:54.790Z,7.90
2019-03-26T13:47:54.867Z,8.10
2019-03-26T13:52:55.034Z,8.50
2019-03-26T13:57:55.123Z,8.70
2019-03-26T14:02:55.203Z,8.80
2019-03-26T14:07:55.379Z,8.40
2019-03-26T14:12:55.466Z,8.10
2019-03-26T14:17:55.622Z,8.10
2019-03-26T14:22:55.808Z,8.00
2019-03-26T14:27:55.894Z,8.00
2019-03-26T14:32:55.982Z,7.50
2019-03-26T14:37:56.063Z,7.10
2019-03-26T14:42:56.149Z,7.30
2019-03-26T14:47:56.238Z,7.50
2019-03-26T14:52:56.327Z,7.80
2019-03-26T14:57:56.427Z,8.00
2019-03-26T15:02:56.547Z,8.20
2019-03-26T15:07:56.630Z,8.50
2019-03-26T15:12:56.862Z,9.10
2019-03-26T15:17:57.040Z,10.40
2019-03-26T15:22:58.265Z,10.50
2019-03-26T15:32:57.786Z,10.30
2019-03-26T15:37:57.895Z,12.70
2019-03-26T15:42:59.207Z,12.90
2019-03-26T15:47:59.371Z,12.80
2019-03-26T15:52:59.511Z,12.80
2019-03-26T15:57:59.992Z,13.10
2019-03-26T16:03:00.343Z,13.70
2019-03-26T16:08:02.404Z,12.30
2019-03-26T16:13:02.589Z,11.60
2019-03-26T16:18:02.698Z,12.60
2019-03-26T16:23:02.875Z,13.70
2019-03-26T16:28:03.074Z,13.90
2019-03-26T16:33:04.156Z,13.30
2019-03-26T16:38:04.320Z,12.70
2019-03-26T16:43:04.568Z,11.60
2019-03-26T16:48:04.818Z,10.50
2019-03-26T16:53:05.011Z,9.90
2019-03-26T16:58:05.231Z,9.70
2019-03-26T17:03:05.737Z,9.60
2019-03-26T17:08:06.135Z,9.40
2019-03-26T17:13:06.307Z,9.20
2019-03-26T17:18:06.478Z,8.90
2019-03-26T17:23:06.648Z,8.90
2019-03-26T17:28:06.770Z,8.90
2019-03-26T17:33:06.922Z,8.70
2019-03-26T17:38:07.246Z,8.70
2019-03-26T17:43:07.394Z,8.70
2019-03-26T17:48:07.519Z,8.70
2019-03-26T17:53:07.719Z,8.50
2019-03-26T17:58:07.833Z,8.40
2019-03-26T18:03:08.037Z,8.40
2019-03-26T18:08:08.217Z,8.40
2019-03-26T18:13:08.310Z,8.40
2019-03-26T18:18:08.502Z,8.40
2019-03-26T18:23:08.582Z,8.30
2019-03-26T18:28:08.786Z,8.30
2019-03-26T18:33:08.922Z,8.20
2019-03-26T18:38:09.095Z,8.20
2019-03-26T18:43:09.218Z,8.30
2019-03-26T18:48:09.378Z,8.20
2019-03-26T18:53:09.474Z,8.10
2019-03-26T18:58:09.598Z,8.10
2019-03-26T19:03:09.816Z,8.20
2019-03-26T19:08:10.007Z,8.10
2019-03-26T19:13:19.145Z,8.10
2019-03-26T19:18:11.971Z,8.10
2019-03-26T19:23:12.065Z,8.10
2019-03-26T19:28:12.253Z,8.00
2019-03-26T19:33:12.331Z,8.00
2019-03-26T19:38:12.423Z,8.00
2019-03-26T19:43:12.513Z,8.00
2019-03-26T19:48:12.710Z,8.10
2019-03-26T19:53:12.810Z,8.10
2019-03-26T19:58:12.889Z,8.00
2019-03-26T20:03:14.778Z,8.00
2019-03-26T20:08:14.889Z,8.00
2019-03-26T20:13:24.447Z,7.90
2019-03-26T20:18:19.908Z,8.00
2019-03-26T20:23:24.378Z,7.90
2019-03-26T20:28:26.912Z,7.90
2019-03-26T20:33:29.560Z,7.90
2019-03-26T20:38:31.862Z,7.90
2019-03-26T20:43:37.443Z,7.90
2019-03-26T20:48:38.177Z,7.80
2019-03-26T20:53:39.912Z,7.90
2019-03-26T20:58:42.672Z,7.80
2019-03-26T21:03:42.850Z,7.80
2019-03-26T21:08:42.941Z,7.70
2019-03-26T21:13:50.649Z,7.60
2019-03-26T21:18:45.419Z,7.60
2019-03-26T21:23:46.015Z,7.60
2019-03-26T21:28:47.975Z,7.50
2019-03-26T21:33:49.975Z,7.60
2019-03-26T21:38:53.622Z,7.60
2019-03-26T21:44:04.267Z,7.50
2019-03-26T21:49:00.445Z,7.40
2019-03-26T21:54:02.535Z,7.30
2019-03-26T21:59:06.421Z,7.20
2019-03-26T22:04:08.358Z,7.20
2019-03-26T22:09:10.086Z,7.10
2019-03-26T22:14:17.739Z,7.00
2019-03-26T22:19:12.887Z,6.90
2019-03-26T22:24:13.122Z,6.90
2019-03-26T22:29:13.827Z,6.90
2019-03-26T22:34:13.978Z,6.90
2019-03-26T22:39:14.382Z,6.90
2019-03-26T22:44:14.980Z,6.90
2019-03-26T22:49:15.100Z,6.90
2019-03-26T22:54:15.831Z,6.80
2019-03-26T22:59:16.029Z,6.80
2019-03-26T23:04:16.149Z,6.80
2019-03-26T23:09:16.226Z,6.80
2019-03-26T23:14:16.686Z,6.70
2019-03-26T23:19:16.784Z,6.60
2019-03-26T23:24:16.882Z,6.60
2019-03-26T23:29:16.962Z,6.60
2019-03-26T23:34:17.161Z,6.60
2019-03-26T23:39:17.246Z,6.60
2019-03-26T23:44:25.808Z,6.50
2019-03-26T23:49:19.118Z,6.50
2019-03-26T23:54:19.283Z,6.50
2019-03-26T23:59:19.376Z,6.50
